Time;durP1;ratioP1;P1;durP2;ratioP2;P2;SDS_P1;SDS_P2;PMS_P1;PMS_P2;Temp;Humidity;BMP_temperature;BMP_pressure;BME280_temperature;BME280_humidity;BME280_pressure;Samples;Min_cycle;Max_cycle;Signal;HPM_P1;HPM_P2
2023/04/14 00:03:33;;;;;;;;;;;6.30;99.90;;;;;;8408023;28;19928;-74
2023/04/14 00:07:35;;;;;;;;;;;6.20;99.80;;;;;;8406521;28;19970;-73
2023/04/14 00:11:36;;;;;;;;;;;6.20;99.90;;;;;;8411603;28;19971;-73
2023/04/14 00:15:39;;;;;;;;;;;6.20;99.90;;;;;;8401488;28;19946;-74
2023/04/14 00:19:40;;;;;;;;;;;6.20;99.90;;;;;;8394074;28;19933;-74
2023/04/14 00:23:42;;;;;;;;;;;6.20;99.90;;;;;;8401220;28;20269;-74
2023/04/14 00:27:44;;;;;;;;;;;6.20;99.90;;;;;;8403279;28;19933;-74
2023/04/14 00:31:45;;;;;;;;;;;6.10;99.90;;;;;;8435679;27;19924;-73
2023/04/14 00:35:47;;;;;;;;;;;6.00;99.90;;;;;;8442238;27;19968;-73
2023/04/14 00:39:49;;;;;;;;;;;5.90;99.90;;;;;;8406958;28;20457;-74
2023/04/14 00:48:54;;;;;;;;;;;5.90;99.90;;;;;;8408871;28;19919;-74
2023/04/14 00:52:57;;;;;;;;;;;5.90;99.90;;;;;;8399508;28;19931;-74
2023/04/14 00:56:59;;;;;;;;;;;5.90;99.90;;;;;;8409353;28;19931;-74
2023/04/14 01:01:01;;;;;;;;;;;5.90;99.90;;;;;;8398824;28;19932;-74
2023/04/14 01:05:03;;;;;;;;;;;5.90;99.90;;;;;;8399208;28;20315;-74
2023/04/14 01:09:05;;;;;;;;;;;5.80;99.90;;;;;;8407399;28;19936;-74
2023/04/14 01:13:15;;;;;;;;;;;5.80;99.90;;;;;;8401703;28;20018;-74
2023/04/14 01:17:43;;;;;;;;;;;5.70;99.90;;;;;;8400936;28;19936;-74
2023/04/14 01:21:48;;;;;;;;;;;5.60;99.90;;;;;;8400219;28;19939;-74
2023/04/14 01:26:01;;;;;;;;;;;5.50;99.90;;;;;;8403823;28;19928;-74
2023/04/14 01:30:20;;;;;;;;;;;5.40;99.90;;;;;;8402217;28;19924;-74
2023/04/14 01:34:31;;;;;;;;;;;5.40;99.90;;;;;;8402191;28;19928;-74
2023/04/14 01:38:34;;;;;;;;;;;5.40;99.90;;;;;;8406682;28;19940;-73
2023/04/14 01:42:37;;;;;;;;;;;5.40;99.90;;;;;;8403205;28;19924;-74
2023/04/14 01:46:40;;;;;;;;;;;5.40;99.90;;;;;;8403342;28;19935;-74
2023/04/14 01:50:42;;;;;;;;;;;5.30;99.90;;;;;;8400413;28;19929;-73
2023/04/14 01:54:45;;;;;;;;;;;5.20;99.90;;;;;;8396329;28;19932;-73
2023/04/14 01:58:47;;;;;;;;;;;5.10;99.90;;;;;;8400051;28;20031;-73
2023/04/14 02:02:50;;;;;;;;;;;5.00;99.90;;;;;;8407533;28;20364;-74
2023/04/14 02:06:52;;;;;;;;;;;4.90;99.90;;;;;;8384235;28;19928;-74
2023/04/14 02:10:55;;;;;;;;;;;4.90;99.90;;;;;;8403999;28;19924;-74
2023/04/14 02:14:58;;;;;;;;;;;4.80;99.90;;;;;;8393122;28;20063;-73
2023/04/14 02:19:01;;;;;;;;;;;4.80;99.90;;;;;;8400870;28;20085;-74
2023/04/14 02:23:03;;;;;;;;;;;4.80;99.90;;;;;;8396471;28;20325;-74
2023/04/14 02:27:09;;;;;;;;;;;4.80;99.90;;;;;;8399540;28;20085;-73
2023/04/14 02:31:12;;;;;;;;;;;4.80;99.90;;;;;;8393466;28;20333;-74
2023/04/14 02:35:17;;;;;;;;;;;4.80;99.90;;;;;;8400355;28;19928;-73
2023/04/14 02:39:20;;;;;;;;;;;4.80;99.90;;;;;;8413242;28;19936;-74
2023/04/14 02:43:28;;;;;;;;;;;4.70;99.90;;;;;;8403145;28;19928;-74
2023/04/14 02:47:34;;;;;;;;;;;4.70;99.90;;;;;;8404702;28;19928;-74
2023/04/14 02:51:37;;;;;;;;;;;4.70;99.90;;;;;;8397071;28;19928;-74
2023/04/14 02:55:39;;;;;;;;;;;4.70;99.90;;;;;;8405602;28;20465;-73
2023/04/14 02:59:42;;;;;;;;;;;4.70;99.90;;;;;;8398953;28;19928;-73
2023/04/14 03:03:43;;;;;;;;;;;4.70;99.90;;;;;;8405437;28;19924;-73
2023/04/14 03:07:46;;;;;;;;;;;4.70;99.90;;;;;;8409209;28;19928;-74
2023/04/14 03:11:48;;;;;;;;;;;4.60;99.90;;;;;;8409021;28;19935;-73
2023/04/14 03:15:50;;;;;;;;;;;4.60;99.90;;;;;;8419751;28;20402;-74
2023/04/14 03:19:52;;;;;;;;;;;4.60;99.90;;;;;;8420214;28;19933;-74
2023/04/14 03:23:55;;;;;;;;;;;4.60;99.90;;;;;;8404159;28;20414;-73
2023/04/14 03:27:58;;;;;;;;;;;4.60;99.90;;;;;;8407417;28;19968;-73
2023/04/14 03:32:01;;;;;;;;;;;4.60;99.90;;;;;;8413038;28;19932;-73
2023/04/14 03:36:03;;;;;;;;;;;4.50;99.90;;;;;;8407661;28;20300;-74
2023/04/14 03:40:06;;;;;;;;;;;4.50;99.90;;;;;;8422716;28;19932;-74
2023/04/14 03:44:14;;;;;;;;;;;4.50;99.90;;;;;;8412537;28;19932;-74
2023/04/14 03:48:17;;;;;;;;;;;4.40;99.90;;;;;;8435964;27;19924;-74
2023/04/14 03:52:20;;;;;;;;;;;4.40;99.90;;;;;;8415961;28;19924;-74
2023/04/14 03:56:21;;;;;;;;;;;4.30;99.90;;;;;;8404349;28;20414;-74
2023/04/14 04:00:24;;;;;;;;;;;4.30;99.90;;;;;;8404044;28;20369;-74
2023/04/14 04:04:26;;;;;;;;;;;4.30;99.90;;;;;;8393901;28;19978;-74
2023/04/14 04:08:29;;;;;;;;;;;4.30;99.90;;;;;;8393158;28;19928;-73
2023/04/14 04:12:32;;;;;;;;;;;4.40;99.90;;;;;;8403500;28;19949;-74
2023/04/14 04:16:35;;;;;;;;;;;4.40;99.90;;;;;;8403521;28;19940;-74
2023/04/14 04:20:39;;;;;;;;;;;4.30;99.90;;;;;;8421173;28;19947;-74
2023/04/14 04:24:41;;;;;;;;;;;4.20;99.90;;;;;;8400525;28;19939;-73
2023/04/14 04:28:44;;;;;;;;;;;4.30;99.90;;;;;;8404282;28;19935;-74
2023/04/14 04:32:46;;;;;;;;;;;4.30;99.90;;;;;;8399533;28;19939;-74
2023/04/14 04:36:48;;;;;;;;;;;4.30;99.90;;;;;;8402500;28;19971;-73
2023/04/14 04:40:50;;;;;;;;;;;4.20;99.90;;;;;;8406577;28;19928;-74
2023/04/14 04:44:51;;;;;;;;;;;4.20;99.90;;;;;;8405469;28;19940;-74
2023/04/14 04:48:54;;;;;;;;;;;4.20;99.90;;;;;;8409119;28;19939;-73
2023/04/14 04:52:56;;;;;;;;;;;4.20;99.90;;;;;;8400237;28;19932;-74
2023/04/14 04:56:57;;;;;;;;;;;4.20;99.90;;;;;;8412205;28;20031;-73
2023/04/14 05:01:05;;;;;;;;;;;4.20;99.90;;;;;;8392098;28;20376;-74
2023/04/14 05:05:41;;;;;;;;;;;4.20;99.90;;;;;;8401687;28;19924;-74
2023/04/14 05:09:43;;;;;;;;;;;4.20;99.90;;;;;;8401886;28;20399;-74
2023/04/14 05:13:45;;;;;;;;;;;4.20;99.90;;;;;;8403764;28;19931;-74
2023/04/14 05:17:46;;;;;;;;;;;4.30;99.90;;;;;;8391989;28;19936;-74
2023/04/14 05:21:48;;;;;;;;;;;4.40;99.90;;;;;;8405456;28;19932;-75
2023/04/14 05:25:50;;;;;;;;;;;4.40;99.90;;;;;;8399446;28;19924;-74
2023/04/14 05:29:51;;;;;;;;;;;4.50;99.90;;;;;;8398409;28;19972;-71
2023/04/14 05:33:53;;;;;;;;;;;4.60;99.90;;;;;;8390429;28;19929;-71
2023/04/14 05:37:55;;;;;;;;;;;4.70;99.90;;;;;;8394424;28;20387;-71
2023/04/14 05:41:58;;;;;;;;;;;4.70;99.90;;;;;;8390881;28;19925;-71
2023/04/14 05:46:00;;;;;;;;;;;4.80;99.90;;;;;;8406068;28;20019;-71
2023/04/14 05:50:03;;;;;;;;;;;4.90;99.90;;;;;;8401937;28;19928;-71
2023/04/14 05:54:04;;;;;;;;;;;5.00;99.90;;;;;;8402531;28;19924;-72
2023/04/14 05:58:06;;;;;;;;;;;5.10;99.90;;;;;;8395166;28;20290;-71
2023/04/14 06:02:08;;;;;;;;;;;5.30;99.90;;;;;;8388023;28;19932;-72
2023/04/14 06:06:09;;;;;;;;;;;5.40;99.90;;;;;;8385534;28;20372;-72
2023/04/14 06:10:11;;;;;;;;;;;5.50;99.90;;;;;;8399020;28;19931;-71
2023/04/14 06:14:13;;;;;;;;;;;5.70;99.90;;;;;;8380878;28;19928;-72
2023/04/14 06:18:15;;;;;;;;;;;5.80;99.90;;;;;;8380469;28;19974;-72
2023/04/14 06:22:18;;;;;;;;;;;5.90;99.90;;;;;;8388439;28;20380;-72
2023/04/14 06:26:21;;;;;;;;;;;6.00;99.90;;;;;;8394820;28;19937;-72
2023/04/14 06:30:23;;;;;;;;;;;6.20;99.90;;;;;;8388925;28;19931;-72
2023/04/14 06:34:24;;;;;;;;;;;6.30;99.90;;;;;;8387869;28;19926;-72
2023/04/14 06:38:26;;;;;;;;;;;6.40;99.90;;;;;;8386039;28;20453;-72
2023/04/14 06:52:35;;;;;;;;;;;7.00;99.90;;;;;;8381316;28;20008;-72
2023/04/14 06:56:37;;;;;;;;;;;7.10;99.90;;;;;;8379424;28;20269;-72
2023/04/14 07:00:38;;;;;;;;;;;7.30;99.90;;;;;;8390311;28;19942;-72
2023/04/14 07:04:40;;;;;;;;;;;7.50;99.90;;;;;;8401953;28;20311;-72
2023/04/14 07:08:42;;;;;;;;;;;7.60;99.90;;;;;;8396396;28;19928;-72
2023/04/14 07:12:44;;;;;;;;;;;7.80;99.90;;;;;;8381523;28;19979;-72
2023/04/14 07:16:45;;;;;;;;;;;8.00;99.90;;;;;;8386277;28;19929;-72
2023/04/14 07:20:51;;;;;;;;;;;8.10;99.90;;;;;;8380301;28;20228;-72
2023/04/14 07:24:53;;;;;;;;;;;8.30;99.90;;;;;;8398117;28;19924;-72
2023/04/14 07:28:54;;;;;;;;;;;8.50;99.90;;;;;;8385317;28;19947;-72
2023/04/14 07:32:56;;;;;;;;;;;8.70;99.90;;;;;;8386848;28;19925;-72
2023/04/14 07:36:58;;;;;;;;;;;8.80;99.90;;;;;;8384269;28;19939;-72
2023/04/14 07:41:02;;;;;;;;;;;9.00;99.90;;;;;;8392875;28;19925;-72
2023/04/14 07:45:03;;;;;;;;;;;9.20;99.90;;;;;;8387167;28;19924;-72
2023/04/14 07:49:05;;;;;;;;;;;9.30;99.90;;;;;;8376516;28;19925;-72
2023/04/14 07:53:07;;;;;;;;;;;9.40;99.90;;;;;;8421184;28;19924;-72
2023/04/14 07:57:09;;;;;;;;;;;9.50;99.90;;;;;;8376332;28;19928;-72
2023/04/14 08:01:11;;;;;;;;;;;9.70;99.90;;;;;;8410929;28;20016;-72
2023/04/14 08:05:13;;;;;;;;;;;9.90;99.90;;;;;;8392613;28;19970;-72
2023/04/14 08:09:16;;;;;;;;;;;10.00;99.90;;;;;;8395176;28;20379;-72
2023/04/14 08:13:17;;;;;;;;;;;10.20;99.90;;;;;;8389211;28;20384;-72
2023/04/14 08:17:19;;;;;;;;;;;10.20;99.90;;;;;;8383962;28;19947;-72
2023/04/14 08:21:21;;;;;;;;;;;10.40;99.90;;;;;;8389654;28;20273;-72
2023/04/14 08:25:23;;;;;;;;;;;10.60;99.90;;;;;;8430015;28;19925;-72
2023/04/14 08:29:25;;;;;;;;;;;10.80;99.90;;;;;;8390792;28;19928;-72
2023/04/14 08:33:27;;;;;;;;;;;11.00;99.90;;;;;;8387150;28;20462;-72
2023/04/14 08:37:28;;;;;;;;;;;11.10;99.90;;;;;;8385032;28;20380;-71
2023/04/14 08:41:32;;;;;;;;;;;11.20;99.90;;;;;;8395013;28;19972;-72
2023/04/14 08:45:35;;;;;;;;;;;11.30;99.90;;;;;;8389349;28;19960;-72
2023/04/14 08:49:41;;;;;;;;;;;11.50;99.90;;;;;;8398583;28;19969;-72
2023/04/14 08:53:44;;;;;;;;;;;11.70;99.90;;;;;;8396006;28;19932;-72
2023/04/14 08:57:47;;;;;;;;;;;11.90;99.90;;;;;;8388704;28;19935;-72
2023/04/14 09:01:48;;;;;;;;;;;12.10;99.90;;;;;;8413458;28;19960;-72
2023/04/14 09:05:50;;;;;;;;;;;12.30;99.90;;;;;;8403584;28;19924;-72
2023/04/14 09:09:52;;;;;;;;;;;12.40;99.90;;;;;;8390479;28;19936;-72
2023/04/14 09:13:55;;;;;;;;;;;12.50;99.90;;;;;;8388885;28;19979;-72
2023/04/14 09:17:57;;;;;;;;;;;12.60;99.90;;;;;;8384363;28;19928;-72
2023/04/14 09:21:59;;;;;;;;;;;12.80;99.90;;;;;;8391228;28;19939;-72
2023/04/14 09:26:01;;;;;;;;;;;12.90;99.90;;;;;;8387208;28;19928;-72
2023/04/14 09:30:02;;;;;;;;;;;13.00;99.90;;;;;;8393402;28;20003;-72
2023/04/14 09:34:13;;;;;;;;;;;13.00;99.90;;;;;;8389284;28;19932;-72
2023/04/14 09:38:30;;;;;;;;;;;13.00;99.90;;;;;;8391212;28;19977;-72
2023/04/14 09:42:38;;;;;;;;;;;13.10;99.90;;;;;;8380805;28;19925;-72
2023/04/14 09:46:55;;;;;;;;;;;13.20;99.90;;;;;;8392090;28;19951;-72
2023/04/14 09:51:11;;;;;;;;;;;13.30;99.90;;;;;;8387834;28;19943;-72
2023/04/14 09:55:14;;;;;;;;;;;13.50;99.90;;;;;;8383239;28;19938;-72
2023/04/14 09:59:28;;;;;;;;;;;13.60;99.90;;;;;;8381212;28;19935;-72
2023/04/14 10:03:39;;;;;;;;;;;13.80;99.90;;;;;;8388079;28;19924;-72
2023/04/14 10:07:41;;;;;;;;;;;13.90;99.90;;;;;;8395980;28;20371;-72
2023/04/14 10:11:43;;;;;;;;;;;13.70;99.90;;;;;;8387424;28;20369;-72
2023/04/14 10:15:45;;;;;;;;;;;13.70;99.90;;;;;;8393786;28;19939;-71
2023/04/14 10:19:47;;;;;;;;;;;13.80;99.90;;;;;;8388885;28;19924;-72
2023/04/14 10:23:49;;;;;;;;;;;14.30;99.90;;;;;;8382891;28;19976;-72
2023/04/14 10:27:50;;;;;;;;;;;14.80;99.90;;;;;;8378458;28;19924;-72
2023/04/14 10:31:55;;;;;;;;;;;15.10;99.90;;;;;;8390978;28;19924;-72
2023/04/14 10:35:59;;;;;;;;;;;15.40;99.90;;;;;;8392488;28;19938;-72
2023/04/14 10:40:05;;;;;;;;;;;15.90;99.90;;;;;;8388469;28;19935;-72
2023/04/14 10:44:22;;;;;;;;;;;16.20;99.90;;;;;;8390150;28;19931;-72
2023/04/14 10:48:24;;;;;;;;;;;16.30;99.90;;;;;;8386546;28;19993;-72
2023/04/14 10:52:26;;;;;;;;;;;16.20;99.90;;;;;;8392961;28;19924;-72
2023/04/14 10:56:29;;;;;;;;;;;16.00;99.90;;;;;;8383017;28;19924;-72
2023/04/14 11:00:36;;;;;;;;;;;15.80;99.90;;;;;;8376659;28;19929;-72
2023/04/14 11:04:56;;;;;;;;;;;15.70;99.90;;;;;;8388343;28;19924;-72
2023/04/14 11:08:57;;;;;;;;;;;16.10;99.90;;;;;;8390732;28;19932;-72
2023/04/14 11:13:00;;;;;;;;;;;16.40;99.90;;;;;;8409315;28;19933;-72
2023/04/14 11:17:03;;;;;;;;;;;16.70;99.90;;;;;;8376476;28;20381;-72
2023/04/14 11:21:07;;;;;;;;;;;16.80;99.90;;;;;;8405255;28;20013;-72
2023/04/14 11:25:13;;;;;;;;;;;16.70;99.90;;;;;;8388765;28;20375;-72
2023/04/14 11:29:15;;;;;;;;;;;16.90;99.90;;;;;;8395678;28;19929;-72
2023/04/14 11:33:17;;;;;;;;;;;17.00;99.90;;;;;;8386387;28;19979;-72
2023/04/14 11:37:19;;;;;;;;;;;17.40;99.90;;;;;;8384226;28;19924;-72
2023/04/14 11:41:24;;;;;;;;;;;17.40;99.90;;;;;;8371211;28;20385;-72
2023/04/14 11:45:26;;;;;;;;;;;17.70;99.90;;;;;;8365905;28;19928;-70
2023/04/14 11:49:32;;;;;;;;;;;17.90;99.90;;;;;;8362445;28;20289;-70
2023/04/14 11:53:35;;;;;;;;;;;18.30;99.90;;;;;;8378522;28;19991;-70
2023/04/14 11:57:36;;;;;;;;;;;18.50;99.90;;;;;;8364795;28;19925;-71
2023/04/14 12:01:38;;;;;;;;;;;18.20;99.90;;;;;;8361351;28;19935;-70
2023/04/14 12:05:40;;;;;;;;;;;18.60;99.40;;;;;;8360961;28;20044;-70
2023/04/14 12:09:43;;;;;;;;;;;19.20;99.90;;;;;;8363711;28;20019;-70
2023/04/14 12:13:46;;;;;;;;;;;19.90;99.90;;;;;;8360427;28;20020;-70
2023/04/14 12:17:47;;;;;;;;;;;20.20;99.90;;;;;;8358759;28;19971;-70
2023/04/14 12:21:51;;;;;;;;;;;20.10;99.90;;;;;;8365900;28;19925;-71
2023/04/14 12:25:53;;;;;;;;;;;20.20;99.90;;;;;;8359146;28;20363;-70
2023/04/14 12:29:55;;;;;;;;;;;20.00;99.90;;;;;;8360714;28;20388;-70
2023/04/14 12:34:02;;;;;;;;;;;19.40;99.90;;;;;;8357842;28;19959;-70
2023/04/14 12:38:08;;;;;;;;;;;19.20;99.90;;;;;;8360390;28;19924;-70
2023/04/14 12:42:10;;;;;;;;;;;19.00;99.90;;;;;;8360539;28;20303;-70
2023/04/14 12:46:21;;;;;;;;;;;18.80;99.90;;;;;;8361530;28;19968;-70
2023/04/14 12:50:27;;;;;;;;;;;18.60;99.90;;;;;;8392429;28;20023;-70
2023/04/14 12:54:45;;;;;;;;;;;18.10;99.80;;;;;;8363766;28;19925;-70
2023/04/14 12:58:47;;;;;;;;;;;17.90;97.40;;;;;;8358195;28;20015;-70
2023/04/14 13:02:49;;;;;;;;;;;17.90;93.80;;;;;;8360633;28;19951;-70
2023/04/14 13:06:51;;;;;;;;;;;17.80;93.20;;;;;;8360044;28;20381;-70
2023/04/14 13:10:53;;;;;;;;;;;17.40;94.80;;;;;;8374120;28;20372;-70
2023/04/14 13:14:55;;;;;;;;;;;17.40;96.30;;;;;;8360182;28;20024;-70
2023/04/14 13:18:57;;;;;;;;;;;17.80;95.90;;;;;;8373192;28;19932;-70
2023/04/14 13:23:00;;;;;;;;;;;18.10;95.20;;;;;;8383734;28;20386;-70
2023/04/14 13:27:02;;;;;;;;;;;18.20;95.60;;;;;;8356938;28;19929;-70
2023/04/14 13:31:03;;;;;;;;;;;18.10;93.90;;;;;;8376464;28;20399;-70
2023/04/14 13:35:05;;;;;;;;;;;18.10;95.60;;;;;;8361305;28;19972;-70
2023/04/14 13:39:07;;;;;;;;;;;18.30;95.40;;;;;;8362161;28;19947;-70
2023/04/14 13:43:10;;;;;;;;;;;18.50;95.40;;;;;;8364055;28;19955;-70
2023/04/14 13:47:11;;;;;;;;;;;18.60;97.10;;;;;;8357830;28;20380;-70
2023/04/14 13:51:13;;;;;;;;;;;18.80;93.90;;;;;;8357014;28;20382;-70
2023/04/14 13:55:16;;;;;;;;;;;18.50;94.00;;;;;;8389228;28;19947;-70
2023/04/14 13:59:18;;;;;;;;;;;18.40;95.40;;;;;;8356763;28;19928;-70
2023/04/14 14:03:20;;;;;;;;;;;18.80;93.80;;;;;;8363029;28;19928;-71
2023/04/14 14:07:21;;;;;;;;;;;19.70;96.60;;;;;;8369848;28;20073;-71
2023/04/14 14:11:23;;;;;;;;;;;20.50;99.00;;;;;;8359751;28;19929;-70
2023/04/14 14:15:25;;;;;;;;;;;21.30;99.90;;;;;;8354655;28;19964;-70
2023/04/14 14:19:27;;;;;;;;;;;21.50;99.90;;;;;;8359946;28;20281;-70
2023/04/14 14:23:28;;;;;;;;;;;22.00;99.90;;;;;;8387660;28;19932;-70
2023/04/14 14:27:30;;;;;;;;;;;21.90;99.90;;;;;;8359760;28;19928;-70
2023/04/14 14:31:33;;;;;;;;;;;21.20;99.90;;;;;;8356516;28;20403;-70
2023/04/14 14:35:34;;;;;;;;;;;20.40;99.90;;;;;;8354003;28;19960;-70
2023/04/14 14:39:36;;;;;;;;;;;19.70;99.90;;;;;;8356274;28;19935;-70
2023/04/14 14:43:38;;;;;;;;;;;19.20;99.90;;;;;;8360122;28;19932;-70
2023/04/14 14:47:40;;;;;;;;;;;19.00;99.10;;;;;;8365581;28;20007;-70
2023/04/14 14:51:41;;;;;;;;;;;19.90;99.90;;;;;;8366170;28;19940;-70
2023/04/14 14:55:43;;;;;;;;;;;21.30;99.70;;;;;;8361771;28;19931;-71
2023/04/14 14:59:45;;;;;;;;;;;21.90;99.90;;;;;;8377329;28;19971;-70
2023/04/14 15:03:47;;;;;;;;;;;21.90;99.90;;;;;;8374273;28;19925;-70
2023/04/14 15:07:49;;;;;;;;;;;21.50;99.90;;;;;;8354476;28;19925;-71
2023/04/14 15:11:51;;;;;;;;;;;21.00;95.90;;;;;;8356237;28;19925;-70
2023/04/14 15:15:53;;;;;;;;;;;20.30;97.30;;;;;;8355311;28;19925;-71
2023/04/14 15:19:55;;;;;;;;;;;19.80;96.50;;;;;;8357206;28;20343;-70
2023/04/14 15:23:57;;;;;;;;;;;19.30;95.60;;;;;;8354509;28;20059;-70
2023/04/14 15:27:59;;;;;;;;;;;18.90;97.30;;;;;;8358199;28;19924;-70
2023/04/14 15:32:00;;;;;;;;;;;18.60;97.40;;;;;;8359403;28;19986;-70
2023/04/14 15:36:02;;;;;;;;;;;18.30;94.20;;;;;;8354086;28;19929;-70
2023/04/14 15:40:04;;;;;;;;;;;18.00;94.30;;;;;;8355579;28;19971;-70
2023/04/14 15:44:06;;;;;;;;;;;17.90;94.50;;;;;;8374786;28;20372;-70
2023/04/14 15:48:08;;;;;;;;;;;17.70;92.10;;;;;;8365158;28;20037;-70
2023/04/14 15:52:09;;;;;;;;;;;17.60;93.20;;;;;;8358518;28;19931;-70
2023/04/14 15:56:12;;;;;;;;;;;17.60;92.40;;;;;;8358780;28;19932;-70
2023/04/14 16:00:14;;;;;;;;;;;17.80;93.50;;;;;;8359393;28;19924;-71
2023/04/14 16:04:16;;;;;;;;;;;18.90;95.00;;;;;;8375795;28;20051;-70
2023/04/14 16:08:18;;;;;;;;;;;20.80;99.50;;;;;;8357411;28;19932;-71
2023/04/14 16:12:20;;;;;;;;;;;22.70;99.90;;;;;;8355948;28;20296;-71
2023/04/14 16:16:22;;;;;;;;;;;24.10;99.80;;;;;;8359983;28;19933;-71
2023/04/14 16:20:24;;;;;;;;;;;25.10;99.90;;;;;;8360714;28;19924;-71
2023/04/14 16:24:26;;;;;;;;;;;25.40;99.90;;;;;;8358052;28;19925;-71
2023/04/14 16:28:27;;;;;;;;;;;25.10;97.10;;;;;;8375967;28;19983;-71
2023/04/14 16:32:29;;;;;;;;;;;24.80;99.90;;;;;;8362277;28;19928;-71
2023/04/14 16:36:32;;;;;;;;;;;24.90;99.90;;;;;;8353336;28;19928;-71
2023/04/14 16:40:34;;;;;;;;;;;25.50;99.90;;;;;;8393067;28;19925;-71
2023/04/14 16:44:36;;;;;;;;;;;25.80;98.10;;;;;;8360191;28;19971;-71
2023/04/14 16:48:38;;;;;;;;;;;25.60;97.50;;;;;;8363484;28;19929;-71
2023/04/14 16:52:40;;;;;;;;;;;25.10;95.80;;;;;;8358618;28;20327;-71
2023/04/14 16:56:41;;;;;;;;;;;24.30;94.80;;;;;;8360446;28;19963;-71
2023/04/14 17:00:43;;;;;;;;;;;23.20;93.90;;;;;;8381345;28;20356;-70
2023/04/14 17:04:44;;;;;;;;;;;22.10;93.10;;;;;;8361085;28;19960;-70
2023/04/14 17:08:46;;;;;;;;;;;21.10;92.30;;;;;;8359000;28;19936;-70
2023/04/14 17:12:48;;;;;;;;;;;20.30;91.10;;;;;;8359291;28;19925;-71
2023/04/14 17:16:49;;;;;;;;;;;19.60;92.90;;;;;;8359306;28;19929;-70
2023/04/14 17:20:51;;;;;;;;;;;19.10;92.10;;;;;;8393329;27;19925;-70
2023/04/14 17:24:53;;;;;;;;;;;18.80;91.90;;;;;;8358860;28;19980;-70
2023/04/14 17:28:55;;;;;;;;;;;18.40;91.90;;;;;;8364071;28;20301;-70
2023/04/14 17:32:57;;;;;;;;;;;18.20;90.90;;;;;;8361938;28;19933;-70
2023/04/14 17:36:58;;;;;;;;;;;18.00;90.70;;;;;;8361417;28;19932;-70
2023/04/14 17:41:00;;;;;;;;;;;17.90;90.80;;;;;;8357187;28;19976;-70
2023/04/14 17:45:02;;;;;;;;;;;17.80;89.50;;;;;;8358563;28;24632;-70
2023/04/14 17:49:04;;;;;;;;;;;17.80;90.00;;;;;;8393005;28;20297;-70
2023/04/14 17:53:06;;;;;;;;;;;17.80;89.00;;;;;;8359090;28;19930;-70
2023/04/14 17:57:09;;;;;;;;;;;17.70;87.50;;;;;;8377427;28;19932;-70
2023/04/14 18:01:11;;;;;;;;;;;17.60;85.50;;;;;;8362985;28;19929;-70
2023/04/14 18:05:13;;;;;;;;;;;17.50;85.90;;;;;;8390192;27;19972;-70
2023/04/14 18:09:14;;;;;;;;;;;17.40;87.80;;;;;;8356300;28;19931;-71
2023/04/14 18:13:16;;;;;;;;;;;17.40;89.50;;;;;;8358978;28;19925;-70
2023/04/14 18:17:18;;;;;;;;;;;17.20;90.40;;;;;;8388070;28;20407;-70
2023/04/14 18:21:20;;;;;;;;;;;17.10;90.60;;;;;;8358711;28;19928;-70
2023/04/14 18:25:22;;;;;;;;;;;16.90;91.00;;;;;;8356599;28;19968;-70
2023/04/14 18:29:24;;;;;;;;;;;16.70;90.80;;;;;;8360887;28;19971;-70
2023/04/14 18:33:26;;;;;;;;;;;16.60;90.50;;;;;;8358419;28;20359;-70
2023/04/14 18:37:27;;;;;;;;;;;16.40;90.70;;;;;;8368679;28;19928;-70
2023/04/14 18:41:29;;;;;;;;;;;16.30;90.40;;;;;;8357276;28;19933;-70
2023/04/14 18:45:30;;;;;;;;;;;16.10;90.50;;;;;;8355333;28;20028;-70
2023/04/14 18:49:33;;;;;;;;;;;15.90;90.60;;;;;;8357453;28;20432;-70
2023/04/14 18:53:34;;;;;;;;;;;15.70;91.10;;;;;;8359968;28;20450;-70
2023/04/14 18:57:36;;;;;;;;;;;15.50;91.40;;;;;;8369244;28;19931;-70
2023/04/14 19:01:39;;;;;;;;;;;15.20;91.20;;;;;;8358930;28;19932;-70
2023/04/14 19:05:41;;;;;;;;;;;15.10;91.20;;;;;;8356407;28;20265;-70
2023/04/14 19:09:42;;;;;;;;;;;15.00;90.90;;;;;;8357338;28;19925;-70
2023/04/14 19:13:44;;;;;;;;;;;14.80;90.80;;;;;;8364193;28;20292;-70
2023/04/14 19:17:46;;;;;;;;;;;14.70;90.60;;;;;;8358816;28;19932;-70
2023/04/14 19:21:47;;;;;;;;;;;14.60;90.90;;;;;;8386531;28;20397;-70
2023/04/14 19:25:49;;;;;;;;;;;14.50;90.90;;;;;;8372927;28;19933;-70
2023/04/14 19:29:51;;;;;;;;;;;14.40;91.10;;;;;;8360917;28;19940;-70
2023/04/14 19:33:53;;;;;;;;;;;14.30;91.00;;;;;;8391890;28;19925;-70
2023/04/14 19:37:55;;;;;;;;;;;14.20;91.20;;;;;;8355048;28;20384;-70
2023/04/14 19:41:57;;;;;;;;;;;14.10;91.60;;;;;;8389789;28;19933;-70
2023/04/14 19:46:03;;;;;;;;;;;14.00;91.30;;;;;;8359466;28;19998;-70
2023/04/14 19:50:05;;;;;;;;;;;14.00;91.20;;;;;;8362878;28;19932;-70
2023/04/14 19:54:06;;;;;;;;;;;14.00;91.50;;;;;;8396813;28;19971;-70
2023/04/14 19:58:08;;;;;;;;;;;14.00;91.00;;;;;;8360837;28;19942;-70
2023/04/14 20:02:11;;;;;;;;;;;14.00;91.00;;;;;;8360609;28;20011;-70
2023/04/14 20:06:13;;;;;;;;;;;14.00;91.50;;;;;;8363313;28;19925;-70
2023/04/14 20:10:15;;;;;;;;;;;14.00;91.30;;;;;;8361877;28;19932;-70
2023/04/14 20:14:16;;;;;;;;;;;13.90;91.00;;;;;;8365286;28;19932;-70
2023/04/14 20:18:18;;;;;;;;;;;13.80;90.80;;;;;;8361407;28;20388;-72
2023/04/14 20:22:20;;;;;;;;;;;13.90;90.80;;;;;;8361389;28;20028;-72
2023/04/14 20:41:33;;;;;;;;;;;13.40;90.30;;;;;;8365240;28;20459;-72
2023/04/14 20:45:35;;;;;;;;;;;13.30;90.90;;;;;;8393900;28;19925;-72
2023/04/14 20:49:36;;;;;;;;;;;13.20;90.40;;;;;;8358988;28;19925;-72
2023/04/14 20:53:38;;;;;;;;;;;13.20;90.10;;;;;;8363241;28;19971;-72
2023/04/14 20:57:40;;;;;;;;;;;13.10;90.00;;;;;;8363055;28;19926;-72
2023/04/14 21:01:44;;;;;;;;;;;13.10;90.30;;;;;;8367021;28;19925;-72
2023/04/14 21:05:46;;;;;;;;;;;13.00;89.70;;;;;;8381334;28;19928;-72
2023/04/14 21:09:48;;;;;;;;;;;12.90;89.70;;;;;;8388231;28;19971;-72
2023/04/14 21:13:50;;;;;;;;;;;12.90;89.40;;;;;;8393217;28;19960;-72
2023/04/14 21:18:12;;;;;;;;;;;12.90;88.70;;;;;;8394701;28;19946;-72
2023/04/14 21:22:14;;;;;;;;;;;12.80;89.10;;;;;;8387435;28;19932;-72
2023/04/14 21:26:16;;;;;;;;;;;12.60;88.70;;;;;;8385885;28;20019;-72
2023/04/14 21:30:18;;;;;;;;;;;12.40;88.70;;;;;;8388740;28;19982;-72
2023/04/14 21:34:19;;;;;;;;;;;12.30;88.40;;;;;;8409704;28;19979;-72
2023/04/14 21:38:22;;;;;;;;;;;12.30;87.80;;;;;;8391915;28;19932;-72
2023/04/14 21:42:24;;;;;;;;;;;12.20;87.90;;;;;;8388183;28;19924;-72
2023/04/14 21:46:25;;;;;;;;;;;12.10;88.00;;;;;;8380436;28;19966;-72
2023/04/14 21:50:28;;;;;;;;;;;12.00;88.00;;;;;;8385404;28;19952;-72
2023/04/14 21:54:31;;;;;;;;;;;11.90;88.60;;;;;;8384342;28;20327;-72
2023/04/14 21:58:32;;;;;;;;;;;11.70;87.40;;;;;;8387397;28;19924;-72
2023/04/14 22:02:34;;;;;;;;;;;11.50;87.10;;;;;;8392489;28;19955;-72
2023/04/14 22:06:36;;;;;;;;;;;11.40;88.40;;;;;;8381563;28;19936;-72
2023/04/14 22:10:42;;;;;;;;;;;11.30;89.20;;;;;;8383454;28;19924;-72
2023/04/14 22:14:44;;;;;;;;;;;11.30;88.80;;;;;;8387383;28;20374;-72
2023/04/14 22:18:48;;;;;;;;;;;11.30;89.20;;;;;;8395971;28;20211;-72
2023/04/14 22:22:49;;;;;;;;;;;11.30;87.80;;;;;;8412714;27;19924;-72
2023/04/14 22:26:52;;;;;;;;;;;11.30;88.90;;;;;;8388830;28;19925;-72
2023/04/14 22:30:54;;;;;;;;;;;11.30;88.00;;;;;;8387418;28;19933;-72
2023/04/14 22:34:55;;;;;;;;;;;11.30;87.90;;;;;;8384241;28;20329;-72
2023/04/14 22:38:57;;;;;;;;;;;11.30;86.40;;;;;;8388153;28;19939;-72
2023/04/14 22:42:59;;;;;;;;;;;11.20;87.00;;;;;;8380885;28;19947;-72
2023/04/14 22:47:02;;;;;;;;;;;11.10;87.70;;;;;;8386299;28;20284;-72
2023/04/14 22:51:03;;;;;;;;;;;11.00;87.10;;;;;;8386306;28;20690;-72
2023/04/14 22:55:06;;;;;;;;;;;10.90;88.20;;;;;;8386017;28;19931;-72
2023/04/14 22:59:07;;;;;;;;;;;10.80;88.10;;;;;;8377771;28;19946;-72
2023/04/14 23:03:10;;;;;;;;;;;10.70;87.80;;;;;;8388698;28;19972;-72
2023/04/14 23:07:12;;;;;;;;;;;10.70;88.40;;;;;;8383958;28;20065;-72
2023/04/14 23:11:14;;;;;;;;;;;10.60;88.00;;;;;;8389300;28;19932;-72
2023/04/14 23:15:17;;;;;;;;;;;10.50;88.40;;;;;;8383222;28;19931;-72
2023/04/14 23:19:19;;;;;;;;;;;10.50;88.60;;;;;;8384000;28;19932;-72
2023/04/14 23:23:21;;;;;;;;;;;10.40;89.40;;;;;;8398883;28;20012;-72
2023/04/14 23:27:22;;;;;;;;;;;10.40;89.00;;;;;;8392338;28;19928;-72
2023/04/14 23:31:24;;;;;;;;;;;10.40;88.90;;;;;;8392355;28;19931;-72
2023/04/14 23:35:27;;;;;;;;;;;10.40;88.20;;;;;;8390637;28;20273;-71
2023/04/14 23:39:29;;;;;;;;;;;10.40;87.90;;;;;;8392363;28;20383;-72
2023/04/14 23:43:31;;;;;;;;;;;10.30;88.50;;;;;;8396570;28;19936;-72
2023/04/14 23:47:32;;;;;;;;;;;10.20;87.80;;;;;;8388560;28;19925;-72
2023/04/14 23:51:34;;;;;;;;;;;10.20;86.80;;;;;;8395735;28;19928;-72
2023/04/14 23:55:36;;;;;;;;;;;10.10;87.90;;;;;;8380460;28;19925;-72
2023/04/14 23:59:38;;;;;;;;;;;10.00;88.60;;;;;;8411994;28;20383;-72
